createdAt,value
2018-10-09T00:01:57.207Z,15.10
2018-10-09T00:03:59.254Z,15.65
2018-10-09T00:06:01.220Z,15.10
2018-10-09T00:08:03.195Z,15.97
2018-10-09T00:10:05.214Z,14.38
2018-10-09T00:12:07.209Z,14.25
2018-10-09T00:14:09.172Z,14.80
2018-10-09T00:16:11.182Z,14.10
2018-10-09T00:18:13.152Z,14.10
2018-10-09T00:20:15.148Z,15.28
2018-10-09T00:22:17.118Z,13.53
2018-10-09T00:24:19.124Z,13.75
2018-10-09T00:26:21.134Z,13.95
2018-10-09T00:28:23.169Z,13.95
2018-10-09T00:30:25.146Z,14.07
2018-10-09T00:32:27.183Z,13.25
2018-10-09T00:34:29.160Z,13.55
2018-10-09T00:36:31.184Z,13.83
2018-10-09T00:38:33.205Z,14.75
2018-10-09T00:40:35.180Z,13.53
2018-10-09T00:42:37.152Z,13.93
2018-10-09T00:44:39.140Z,13.85
2018-10-09T00:46:41.171Z,13.45
2018-10-09T00:48:43.139Z,14.25
2018-10-09T00:50:45.121Z,12.82
2018-10-09T00:52:47.168Z,13.35
2018-10-09T00:54:49.138Z,12.33
2018-10-09T00:56:51.125Z,13.53
2018-10-09T00:58:53.115Z,12.93
2018-10-09T01:00:55.157Z,12.53
2018-10-09T01:02:57.217Z,12.93
2018-10-09T01:04:59.192Z,13.08
2018-10-09T01:07:01.233Z,13.50
2018-10-09T01:09:03.230Z,12.18
2018-10-09T01:11:05.294Z,12.28
2018-10-09T01:13:07.348Z,11.15
2018-10-09T01:15:09.317Z,11.88
2018-10-09T01:17:11.280Z,13.03
2018-10-09T01:19:13.290Z,13.28
2018-10-09T01:21:15.326Z,11.97
2018-10-09T01:23:17.328Z,11.95
2018-10-09T01:25:19.316Z,11.78
2018-10-09T01:27:21.344Z,11.75
2018-10-09T01:29:23.328Z,11.95
2018-10-09T01:31:25.355Z,13.50
2018-10-09T01:33:27.334Z,11.10
2018-10-09T01:35:29.367Z,11.17
2018-10-09T01:37:31.399Z,11.33
2018-10-09T01:39:33.375Z,12.23
2018-10-09T01:41:35.420Z,10.77
2018-10-09T01:43:37.461Z,12.65
2018-10-09T01:45:39.468Z,11.30
2018-10-09T01:47:41.444Z,11.25
2018-10-09T01:49:43.454Z,11.45
2018-10-09T01:51:45.432Z,10.70
2018-10-09T01:53:47.424Z,11.67
2018-10-09T01:55:49.464Z,10.43
2018-10-09T01:57:51.689Z,10.35
2018-10-09T01:59:54.416Z,11.53
2018-10-09T02:01:56.447Z,10.28
2018-10-09T02:03:58.415Z,10.85
2018-10-09T02:06:00.395Z,11.22
2018-10-09T02:08:02.423Z,10.50
2018-10-09T02:10:04.428Z,11.78
2018-10-09T02:12:06.454Z,10.53
2018-10-09T02:14:08.429Z,10.28
2018-10-09T02:16:10.404Z,11.95
2018-10-09T02:18:12.447Z,10.30
2018-10-09T02:20:14.481Z,10.28
2018-10-09T02:22:16.484Z,11.25
2018-10-09T02:24:18.459Z,10.57
2018-10-09T02:26:20.492Z,9.90
2018-10-09T02:28:22.503Z,10.75
2018-10-09T02:30:24.471Z,10.75
2018-10-09T02:32:26.517Z,11.03
2018-10-09T02:34:28.507Z,10.68
2018-10-09T02:36:30.471Z,11.25
2018-10-09T02:38:32.499Z,10.28
2018-10-09T02:40:34.493Z,10.65
2018-10-09T02:42:36.506Z,10.48
2018-10-09T02:44:38.518Z,10.45
2018-10-09T02:46:40.489Z,10.55
2018-10-09T02:48:42.535Z,10.58
2018-10-09T02:50:44.511Z,10.72
2018-10-09T02:52:46.480Z,9.85
2018-10-09T02:54:48.597Z,9.25
2018-10-09T02:56:50.536Z,9.78
2018-10-09T02:58:52.528Z,9.80
2018-10-09T03:00:54.527Z,9.83
2018-10-09T03:02:56.538Z,9.83
2018-10-09T03:04:58.558Z,10.03
2018-10-09T03:07:00.537Z,9.95
2018-10-09T03:09:02.583Z,10.28
2018-10-09T03:11:04.549Z,9.43
2018-10-09T03:13:06.567Z,9.60
2018-10-09T03:15:08.591Z,9.40
2018-10-09T03:17:10.565Z,9.18
2018-10-09T03:19:12.580Z,9.05
2018-10-09T03:21:14.555Z,9.00
2018-10-09T03:23:16.538Z,9.40
2018-10-09T03:25:18.558Z,9.28
2018-10-09T03:27:20.578Z,9.05
2018-10-09T03:29:22.571Z,9.18
2018-10-09T03:31:24.584Z,9.43
2018-10-09T03:33:26.561Z,8.50
2018-10-09T03:35:28.534Z,8.00
2018-10-09T03:37:30.548Z,8.85
2018-10-09T03:39:32.528Z,8.23
2018-10-09T03:41:34.502Z,8.25
2018-10-09T03:43:36.520Z,8.60
2018-10-09T03:45:38.515Z,7.80
2018-10-09T03:47:40.470Z,8.65
2018-10-09T03:49:42.486Z,8.48
2018-10-09T03:51:44.465Z,8.13
2018-10-09T03:53:46.565Z,8.48
2018-10-09T03:55:48.584Z,8.23
2018-10-09T03:57:50.554Z,7.45
2018-10-09T03:59:52.560Z,8.60
2018-10-09T04:01:54.526Z,8.08
2018-10-09T04:03:56.528Z,8.18
2018-10-09T04:05:58.544Z,7.90
2018-10-09T04:08:00.521Z,8.18
2018-10-09T04:10:02.490Z,7.90
2018-10-09T04:12:04.505Z,7.30
2018-10-09T04:14:06.524Z,7.42
2018-10-09T04:16:08.488Z,7.55
2018-10-09T04:18:10.526Z,7.78
2018-10-09T04:20:12.536Z,7.92
2018-10-09T04:22:14.496Z,7.95
2018-10-09T04:24:16.539Z,7.50
2018-10-09T04:26:18.510Z,7.83
2018-10-09T04:28:20.958Z,7.70
2018-10-09T04:30:22.938Z,7.17
2018-10-09T04:32:24.963Z,6.90
2018-10-09T04:34:26.925Z,7.12
2018-10-09T04:36:28.922Z,6.75
2018-10-09T04:38:30.952Z,7.35
2018-10-09T04:40:32.958Z,7.90
2018-10-09T04:42:35.016Z,7.70
2018-10-09T04:44:37.025Z,6.65
2018-10-09T04:46:39.046Z,6.53
2018-10-09T04:48:41.025Z,6.92
2018-10-09T04:50:43.045Z,6.58
2018-10-09T04:52:45.048Z,6.80
2018-10-09T04:54:47.061Z,7.58
2018-10-09T04:56:49.069Z,6.55
2018-10-09T04:58:51.043Z,6.90
2018-10-09T05:00:53.033Z,6.22
2018-10-09T05:02:55.000Z,7.45
2018-10-09T05:04:56.963Z,6.85
2018-10-09T05:06:58.960Z,6.22
2018-10-09T05:09:00.975Z,5.87
2018-10-09T05:11:02.912Z,6.42
2018-10-09T05:13:04.905Z,7.17
2018-10-09T05:15:06.928Z,6.62
2018-10-09T05:17:08.938Z,7.05
2018-10-09T05:19:10.896Z,6.20
2018-10-09T05:21:12.866Z,6.60
2018-10-09T05:23:14.907Z,7.15
2018-10-09T05:25:16.886Z,6.33
2018-10-09T05:29:27.261Z,6.42
2018-10-09T05:31:29.320Z,6.67
2018-10-09T05:33:31.266Z,6.28
2018-10-09T05:35:33.306Z,6.05
2018-10-09T05:37:35.300Z,5.92
2018-10-09T05:39:37.353Z,6.00
2018-10-09T05:41:39.320Z,6.10
2018-10-09T05:43:41.329Z,5.95
2018-10-09T05:45:43.299Z,6.90
2018-10-09T05:47:45.327Z,5.78
2018-10-09T05:49:47.294Z,6.20
2018-10-09T05:51:49.374Z,5.15
2018-10-09T05:53:51.424Z,6.00
2018-10-09T05:55:53.414Z,5.92
2018-10-09T05:57:55.510Z,6.05
2018-10-09T05:59:57.420Z,5.65
2018-10-09T06:01:59.409Z,6.22
2018-10-09T06:04:01.435Z,5.95
2018-10-09T06:06:03.414Z,5.30
2018-10-09T06:08:05.421Z,5.55
2018-10-09T06:10:07.421Z,5.40
2018-10-09T06:12:09.384Z,5.20
2018-10-09T06:14:11.416Z,5.20
2018-10-09T06:16:13.735Z,5.05
2018-10-09T06:18:15.737Z,4.85
2018-10-09T06:20:17.761Z,5.05
2018-10-09T06:22:19.792Z,4.65
2018-10-09T06:24:21.701Z,5.87
2018-10-09T06:26:23.714Z,5.15
2018-10-09T06:28:25.707Z,5.28
2018-10-09T06:30:27.688Z,5.80
2018-10-09T06:32:29.804Z,5.28
2018-10-09T06:34:31.782Z,5.65
2018-10-09T06:36:33.768Z,5.42
2018-10-09T06:38:35.776Z,5.60
2018-10-09T06:40:37.767Z,5.03
2018-10-09T06:42:39.782Z,4.85
2018-10-09T06:44:41.953Z,5.05
2018-10-09T06:46:43.953Z,5.08
2018-10-09T06:48:45.953Z,4.75
2018-10-09T06:50:47.928Z,5.12
2018-10-09T06:52:49.934Z,4.78
2018-10-09T06:54:52.024Z,5.05
2018-10-09T06:56:53.884Z,4.62
2018-10-09T06:58:56.058Z,4.60
2018-10-09T07:00:58.623Z,4.55
2018-10-09T07:03:00.617Z,4.92
2018-10-09T07:05:02.588Z,5.22
2018-10-09T07:07:04.622Z,4.67
2018-10-09T07:09:06.592Z,4.58
2018-10-09T07:11:08.623Z,5.20
2018-10-09T07:13:10.848Z,5.28
2018-10-09T07:15:12.847Z,4.83
2018-10-09T07:17:14.863Z,5.15
2018-10-09T07:19:16.832Z,5.42
2018-10-09T07:21:18.856Z,4.60
2018-10-09T07:23:20.878Z,5.28
2018-10-09T07:25:22.859Z,4.62
2018-10-09T07:27:24.875Z,5.58
2018-10-09T07:29:26.838Z,4.67
2018-10-09T07:31:28.888Z,4.55
2018-10-09T07:33:30.856Z,5.08
2018-10-09T07:35:32.814Z,4.55
2018-10-09T07:37:34.878Z,4.72
2018-10-09T07:39:37.243Z,5.00
2018-10-09T07:41:39.249Z,4.42
2018-10-09T07:43:43.472Z,4.75
2018-10-09T07:45:45.493Z,4.58
2018-10-09T07:47:47.497Z,4.20
2018-10-09T07:49:49.497Z,4.70
2018-10-09T07:51:51.456Z,4.37
2018-10-09T07:53:53.471Z,4.87
2018-10-09T07:55:55.525Z,4.58
2018-10-09T07:57:57.511Z,4.50
2018-10-09T07:59:59.481Z,4.55
2018-10-09T08:02:01.495Z,4.40
2018-10-09T08:04:03.473Z,4.67
2018-10-09T08:06:05.511Z,4.25
2018-10-09T08:08:07.533Z,4.60
2018-10-09T08:10:09.517Z,4.25
2018-10-09T08:12:11.476Z,4.15
2018-10-09T08:14:13.497Z,3.98
2018-10-09T08:16:15.527Z,4.35
2018-10-09T08:18:17.506Z,4.80
2018-10-09T08:20:19.474Z,4.53
2018-10-09T08:22:21.518Z,4.40
2018-10-09T08:24:23.432Z,4.72
2018-10-09T08:26:25.424Z,4.72
2018-10-09T08:28:27.438Z,4.10
2018-10-09T08:30:29.383Z,3.75
2018-10-09T08:32:31.405Z,4.20
2018-10-09T08:34:33.397Z,4.30
2018-10-09T08:36:35.353Z,3.92
2018-10-09T08:38:37.363Z,4.30
2018-10-09T08:40:39.340Z,4.45
2018-10-09T08:42:41.357Z,4.45
2018-10-09T08:44:43.332Z,4.28
2018-10-09T08:46:45.339Z,4.05
2018-10-09T08:48:47.355Z,4.08
2018-10-09T08:50:49.322Z,4.37
2018-10-09T08:52:51.307Z,4.65
2018-10-09T08:54:53.323Z,4.30
2018-10-09T08:56:55.283Z,4.50
2018-10-09T08:58:57.254Z,4.30
2018-10-09T09:00:59.252Z,3.90
2018-10-09T09:03:01.215Z,4.25
2018-10-09T09:05:03.234Z,3.90
2018-10-09T09:07:05.684Z,4.42
2018-10-09T09:09:07.623Z,4.15
2018-10-09T09:11:09.625Z,3.98
2018-10-09T09:13:11.572Z,4.35
2018-10-09T09:15:13.581Z,3.83
2018-10-09T09:17:15.522Z,4.20
2018-10-09T09:19:17.486Z,3.95
2018-10-09T09:21:19.556Z,3.35
2018-10-09T09:23:21.505Z,3.90
2018-10-09T09:25:23.483Z,4.62
2018-10-09T09:27:25.543Z,3.52
2018-10-09T09:29:28.016Z,4.03
2018-10-09T09:31:30.233Z,3.35
2018-10-09T09:33:32.243Z,3.62
2018-10-09T09:35:34.218Z,3.22
2018-10-09T09:37:36.455Z,3.85
2018-10-09T09:39:38.472Z,3.40
2018-10-09T09:41:40.464Z,3.52
2018-10-09T09:43:42.414Z,3.95
2018-10-09T09:45:44.499Z,3.60
2018-10-09T09:47:46.745Z,3.52
2018-10-09T09:49:48.726Z,3.45
2018-10-09T09:51:50.722Z,3.75
2018-10-09T09:53:52.705Z,3.42
2018-10-09T09:55:54.686Z,3.42
2018-10-09T09:57:56.755Z,3.50
2018-10-09T09:59:58.658Z,3.25
2018-10-09T10:02:00.655Z,3.58
2018-10-09T10:04:02.651Z,3.42
2018-10-09T10:06:04.648Z,3.55
2018-10-09T10:08:06.635Z,3.47
2018-10-09T10:10:08.613Z,3.33
2018-10-09T10:12:10.614Z,3.50
2018-10-09T10:14:12.607Z,3.42
2018-10-09T10:16:14.587Z,3.47
2018-10-09T10:18:16.613Z,3.20
2018-10-09T10:20:18.649Z,3.33
2018-10-09T10:22:20.665Z,3.25
2018-10-09T10:24:22.657Z,3.27
2018-10-09T10:26:24.653Z,3.40
2018-10-09T10:28:26.610Z,3.30
2018-10-09T10:30:28.629Z,3.40
2018-10-09T10:32:30.623Z,3.12
2018-10-09T10:34:32.589Z,3.55
2018-10-09T10:36:34.577Z,3.30
2018-10-09T10:38:36.583Z,3.10
2018-10-09T10:40:38.576Z,3.20
2018-10-09T10:42:40.538Z,2.90
2018-10-09T10:44:42.560Z,3.12
2018-10-09T10:46:44.560Z,3.35
2018-10-09T10:48:46.552Z,2.92
2018-10-09T10:50:48.532Z,3.00
2018-10-09T10:52:50.527Z,3.20
2018-10-09T10:54:52.531Z,3.15
2018-10-09T10:56:54.490Z,2.95
2018-10-09T10:58:56.454Z,3.17
2018-10-09T11:00:58.464Z,3.12
2018-10-09T11:03:00.490Z,2.90
2018-10-09T11:05:02.492Z,3.58
2018-10-09T11:07:04.489Z,3.00
2018-10-09T11:09:06.484Z,3.70
2018-10-09T11:11:08.466Z,2.87
2018-10-09T11:13:10.505Z,2.92
2018-10-09T11:15:12.508Z,2.72
2018-10-09T11:17:14.472Z,2.92
2018-10-09T11:19:16.960Z,3.30
2018-10-09T11:21:19.075Z,2.75
2018-10-09T11:23:20.993Z,2.80
2018-10-09T11:25:22.978Z,2.95
2018-10-09T11:27:24.979Z,2.65
2018-10-09T11:29:26.985Z,2.80
2018-10-09T11:31:29.017Z,2.98
2018-10-09T11:33:30.988Z,2.98
2018-10-09T11:35:32.970Z,3.42
2018-10-09T11:37:34.977Z,2.95
2018-10-09T11:39:36.993Z,3.00
2018-10-09T11:41:38.966Z,2.80
2018-10-09T11:43:41.008Z,2.85
2018-10-09T11:45:42.993Z,3.20
2018-10-09T11:47:44.994Z,2.80
2018-10-09T11:49:46.980Z,2.65
2018-10-09T11:51:48.970Z,3.10
2018-10-09T11:53:50.997Z,2.55
2018-10-09T11:55:52.962Z,2.95
2018-10-09T11:57:54.939Z,2.83
2018-10-09T11:59:56.939Z,2.75
2018-10-09T12:01:58.935Z,2.47
2018-10-09T12:04:00.897Z,2.83
2018-10-09T12:06:02.919Z,2.60
2018-10-09T12:08:04.944Z,2.98
2018-10-09T12:10:06.892Z,2.70
2018-10-09T12:12:08.916Z,2.75
2018-10-09T12:14:10.899Z,2.85
2018-10-09T12:16:12.952Z,2.95
2018-10-09T12:18:14.977Z,2.30
2018-10-09T12:20:16.945Z,2.85
2018-10-09T12:22:18.912Z,2.80
2018-10-09T12:24:20.919Z,3.02
2018-10-09T12:26:22.925Z,2.98
2018-10-09T12:28:24.895Z,2.90
2018-10-09T12:30:26.863Z,2.62
2018-10-09T12:32:28.883Z,2.62
2018-10-09T12:34:30.951Z,2.58
2018-10-09T12:36:32.939Z,2.77
2018-10-09T12:38:34.959Z,2.62
2018-10-09T12:40:36.918Z,2.52
2018-10-09T12:42:38.947Z,2.70
2018-10-09T12:44:40.939Z,2.72
2018-10-09T12:46:42.926Z,2.30
2018-10-09T12:48:44.897Z,2.67
2018-10-09T12:50:46.911Z,2.77
2018-10-09T12:52:48.939Z,2.27
2018-10-09T12:54:50.859Z,2.62
2018-10-09T12:56:52.906Z,2.22
2018-10-09T12:58:54.877Z,2.55
2018-10-09T13:00:56.813Z,2.92
2018-10-09T13:02:58.876Z,2.70
2018-10-09T13:05:00.833Z,2.37
2018-10-09T13:07:02.826Z,2.67
2018-10-09T13:09:04.801Z,2.20
2018-10-09T13:11:06.803Z,2.37
2018-10-09T13:13:08.827Z,2.40
2018-10-09T13:15:10.823Z,2.50
2018-10-09T13:17:12.802Z,2.50
2018-10-09T13:19:14.789Z,2.52
2018-10-09T13:21:16.989Z,2.35
2018-10-09T13:23:19.061Z,2.58
2018-10-09T13:25:21.049Z,2.40
2018-10-09T13:27:23.041Z,2.58
2018-10-09T13:29:25.048Z,2.42
2018-10-09T13:31:27.007Z,2.30
2018-10-09T13:33:29.026Z,2.42
2018-10-09T13:35:31.025Z,2.50
2018-10-09T13:37:32.996Z,2.50
2018-10-09T13:39:34.990Z,2.10
2018-10-09T13:41:36.986Z,2.80
2018-10-09T13:43:38.941Z,2.30
2018-10-09T13:45:40.962Z,2.40
2018-10-09T13:47:42.925Z,2.27
2018-10-09T13:49:45.325Z,2.50
2018-10-09T13:51:47.316Z,2.30
2018-10-09T13:53:49.352Z,2.27
2018-10-09T13:55:51.338Z,2.20
2018-10-09T13:57:53.370Z,2.33
2018-10-09T13:59:55.367Z,2.40
2018-10-09T14:01:57.348Z,2.27
2018-10-09T14:03:59.541Z,2.37
2018-10-09T14:06:01.551Z,2.30
2018-10-09T14:08:03.521Z,2.15
2018-10-09T14:10:05.496Z,2.22
2018-10-09T14:12:07.489Z,2.47
2018-10-09T14:14:09.503Z,1.80
2018-10-09T14:16:11.516Z,1.90
2018-10-09T14:18:13.464Z,2.15
2018-10-09T14:20:15.505Z,2.60
2018-10-09T14:22:17.585Z,2.25
2018-10-09T14:24:19.494Z,2.08
2018-10-09T14:26:21.468Z,2.67
2018-10-09T14:28:23.460Z,2.00
2018-10-09T14:30:25.464Z,2.17
2018-10-09T14:32:27.516Z,2.33
2018-10-09T14:34:29.476Z,2.58
2018-10-09T14:36:31.494Z,2.10
2018-10-09T14:38:33.492Z,2.35
2018-10-09T14:40:35.468Z,2.40
2018-10-09T14:42:37.462Z,2.27
2018-10-09T14:44:39.486Z,2.02
2018-10-09T14:46:41.466Z,2.33
2018-10-09T14:48:43.445Z,1.90
2018-10-09T14:50:45.685Z,2.35
2018-10-09T14:52:47.688Z,2.40
2018-10-09T14:54:49.658Z,2.05
2018-10-09T14:56:51.629Z,2.17
2018-10-09T14:58:53.637Z,2.58
2018-10-09T15:00:55.654Z,2.58
2018-10-09T15:02:57.638Z,1.90
2018-10-09T15:04:59.737Z,2.25
2018-10-09T15:07:01.692Z,2.40
2018-10-09T15:09:03.668Z,2.22
2018-10-09T15:11:05.696Z,2.45
2018-10-09T15:13:07.676Z,2.35
2018-10-09T15:15:09.718Z,2.37
2018-10-09T15:17:11.816Z,2.17
2018-10-09T15:19:14.101Z,2.40
2018-10-09T15:21:16.118Z,2.20
2018-10-09T15:23:18.177Z,2.27
2018-10-09T15:25:20.168Z,2.95
2018-10-09T15:27:22.150Z,2.27
2018-10-09T15:29:24.207Z,2.17
2018-10-09T15:31:26.180Z,2.05
2018-10-09T15:35:36.611Z,2.40
2018-10-09T15:37:38.634Z,2.25
2018-10-09T15:39:40.639Z,2.10
2018-10-09T15:41:42.768Z,2.55
2018-10-09T15:43:44.627Z,2.30
2018-10-09T15:45:46.612Z,2.40
2018-10-09T15:47:48.634Z,2.20
2018-10-09T15:49:50.612Z,2.15
2018-10-09T15:51:52.602Z,2.20
2018-10-09T15:53:54.550Z,2.35
2018-10-09T15:55:56.580Z,2.52
2018-10-09T15:57:58.552Z,2.25
2018-10-09T16:00:00.538Z,2.30
2018-10-09T16:02:02.553Z,2.10
2018-10-09T16:04:04.551Z,2.05
2018-10-09T16:06:06.548Z,2.10
2018-10-09T16:08:08.529Z,2.45
2018-10-09T16:10:10.537Z,2.17
2018-10-09T16:12:12.518Z,2.05
2018-10-09T16:14:14.539Z,2.08
2018-10-09T16:16:16.552Z,1.80
2018-10-09T16:18:18.576Z,2.10
2018-10-09T16:20:20.556Z,2.50
2018-10-09T16:22:22.534Z,2.27
2018-10-09T16:24:24.529Z,2.12
2018-10-09T16:26:26.553Z,2.22
2018-10-09T16:28:28.521Z,1.92
2018-10-09T16:30:30.549Z,1.95
2018-10-09T16:32:32.626Z,2.00
2018-10-09T16:34:34.521Z,2.08
2018-10-09T16:36:37.315Z,2.20
2018-10-09T16:38:39.651Z,2.40
2018-10-09T16:40:41.694Z,2.40
2018-10-09T16:42:43.710Z,2.40
2018-10-09T16:44:45.749Z,2.10
2018-10-09T16:46:47.734Z,2.42
2018-10-09T16:48:49.735Z,2.08
2018-10-09T16:50:51.743Z,1.90
2018-10-09T16:52:53.738Z,1.80
2018-10-09T16:54:55.762Z,2.35
2018-10-09T16:56:57.733Z,2.02
2018-10-09T16:58:59.724Z,2.17
2018-10-09T17:01:01.745Z,2.27
2018-10-09T17:03:03.748Z,1.98
2018-10-09T17:05:05.787Z,1.95
2018-10-09T17:07:07.757Z,2.30
2018-10-09T17:09:09.730Z,2.20
2018-10-09T17:11:11.761Z,2.37
2018-10-09T17:13:13.764Z,2.30
2018-10-09T17:15:15.759Z,1.98
2018-10-09T17:17:17.823Z,1.95
2018-10-09T17:19:20.171Z,2.00
2018-10-09T17:21:22.206Z,2.08
2018-10-09T17:23:24.181Z,2.00
2018-10-09T17:25:26.158Z,2.30
2018-10-09T17:27:28.160Z,2.10
2018-10-09T17:29:30.171Z,2.30
2018-10-09T17:31:32.170Z,2.30
2018-10-09T17:33:34.257Z,2.15
2018-10-09T17:35:36.148Z,1.92
2018-10-09T17:37:38.119Z,2.15
2018-10-09T17:39:40.116Z,2.10
2018-10-09T17:41:42.140Z,2.50
2018-10-09T17:43:44.140Z,1.80
2018-10-09T17:45:46.110Z,2.10
2018-10-09T17:47:48.101Z,2.37
2018-10-09T17:49:50.105Z,1.80
2018-10-09T17:51:52.079Z,1.82
2018-10-09T17:53:54.071Z,2.05
2018-10-09T17:55:56.067Z,2.30
2018-10-09T17:57:58.069Z,2.00
2018-10-09T18:00:00.067Z,2.33
2018-10-09T18:02:02.037Z,1.98
2018-10-09T18:04:04.260Z,2.08
2018-10-09T18:06:06.266Z,1.98
2018-10-09T18:08:08.304Z,2.00
2018-10-09T18:10:10.376Z,2.15
2018-10-09T18:12:12.343Z,2.45
2018-10-09T18:14:14.331Z,1.90
2018-10-09T18:16:16.350Z,2.25
2018-10-09T18:18:18.332Z,2.25
2018-10-09T18:20:20.334Z,1.90
2018-10-09T18:22:22.320Z,2.05
2018-10-09T18:24:24.324Z,2.22
2018-10-09T18:26:26.423Z,2.27
2018-10-09T18:28:28.403Z,1.92
2018-10-09T18:30:30.398Z,2.22
2018-10-09T18:32:32.487Z,2.20
2018-10-09T18:34:34.666Z,2.20
2018-10-09T18:36:36.654Z,2.10
2018-10-09T18:38:38.687Z,2.22
2018-10-09T18:40:40.686Z,2.17
2018-10-09T18:42:42.634Z,2.15
2018-10-09T18:44:44.624Z,2.37
2018-10-09T18:46:46.658Z,2.10
2018-10-09T18:48:48.838Z,2.10
2018-10-09T18:50:50.848Z,2.45
2018-10-09T18:52:52.825Z,2.00
2018-10-09T18:54:54.822Z,2.20
2018-10-09T18:56:56.848Z,2.47
2018-10-09T18:58:58.813Z,2.40
2018-10-09T19:01:00.823Z,2.33
2018-10-09T19:03:02.793Z,2.45
2018-10-09T19:05:04.781Z,1.98
2018-10-09T19:07:06.804Z,2.12
2018-10-09T19:09:08.774Z,2.00
2018-10-09T19:11:10.912Z,2.30
2018-10-09T19:13:12.894Z,2.37
2018-10-09T19:15:14.873Z,2.47
2018-10-09T19:17:16.874Z,2.00
2018-10-09T19:19:18.838Z,2.10
2018-10-09T19:21:20.857Z,2.47
2018-10-09T19:23:22.909Z,2.30
2018-10-09T19:25:24.933Z,2.55
2018-10-09T19:27:26.910Z,2.33
2018-10-09T19:29:28.928Z,2.42
2018-10-09T19:31:30.942Z,2.50
2018-10-09T19:33:32.934Z,2.42
2018-10-09T19:35:34.956Z,2.00
2018-10-09T19:37:36.986Z,2.35
2018-10-09T19:39:38.996Z,2.10
2018-10-09T19:41:40.954Z,1.92
2018-10-09T19:43:43.860Z,2.60
2018-10-09T19:45:45.841Z,2.10
2018-10-09T19:47:47.802Z,2.37
2018-10-09T19:49:49.802Z,2.17
2018-10-09T19:51:51.780Z,2.08
2018-10-09T19:53:53.814Z,2.12
2018-10-09T19:55:55.819Z,2.33
2018-10-09T19:57:57.830Z,2.03
2018-10-09T19:59:59.804Z,2.60
2018-10-09T20:02:01.823Z,2.00
2018-10-09T20:04:03.796Z,2.37
2018-10-09T20:06:05.791Z,2.30
2018-10-09T20:08:07.813Z,2.00
2018-10-09T20:10:09.842Z,2.50
2018-10-09T20:12:11.807Z,2.20
2018-10-09T20:14:13.822Z,2.42
2018-10-09T20:16:16.290Z,2.22
2018-10-09T20:18:18.258Z,2.47
2018-10-09T20:20:20.263Z,2.15
2018-10-09T20:22:22.288Z,2.40
2018-10-09T20:24:24.283Z,2.15
2018-10-09T20:26:26.250Z,2.10
2018-10-09T20:28:28.280Z,2.20
2018-10-09T20:30:30.260Z,2.33
2018-10-09T20:32:32.241Z,2.12
2018-10-09T20:34:34.448Z,2.10
2018-10-09T20:36:36.431Z,2.40
2018-10-09T20:38:38.474Z,2.50
2018-10-09T20:40:40.559Z,2.45
2018-10-09T20:42:42.548Z,2.80
2018-10-09T20:44:44.564Z,2.70
2018-10-09T20:46:46.540Z,2.33
2018-10-09T20:48:48.520Z,2.52
2018-10-09T20:50:50.515Z,2.45
2018-10-09T20:52:52.494Z,2.40
2018-10-09T20:54:54.519Z,2.02
2018-10-09T20:56:56.503Z,2.65
2018-10-09T20:58:58.532Z,2.93
2018-10-09T21:01:00.555Z,2.47
2018-10-09T21:03:02.555Z,2.30
2018-10-09T21:05:04.528Z,2.37
2018-10-09T21:07:06.509Z,2.40
2018-10-09T21:09:08.477Z,2.80
2018-10-09T21:11:10.510Z,2.52
2018-10-09T21:13:12.552Z,2.27
2018-10-09T21:15:14.594Z,2.75
2018-10-09T21:17:16.650Z,2.20
2018-10-09T21:19:18.794Z,2.37
2018-10-09T21:21:20.810Z,2.50
2018-10-09T21:23:22.776Z,2.52
2018-10-09T21:25:24.757Z,2.13
2018-10-09T21:27:26.768Z,2.55
2018-10-09T21:29:28.818Z,2.60
2018-10-09T21:31:30.809Z,2.50
2018-10-09T21:33:32.850Z,2.67
2018-10-09T21:35:34.859Z,2.73
2018-10-09T21:37:36.845Z,2.55
2018-10-09T21:39:38.823Z,2.87
2018-10-09T21:41:40.811Z,2.47
2018-10-09T21:43:42.791Z,2.62
2018-10-09T21:45:44.814Z,2.62
2018-10-09T21:47:46.787Z,2.70
2018-10-09T21:49:48.801Z,2.67
2018-10-09T21:51:50.775Z,2.40
2018-10-09T21:53:52.730Z,2.58
2018-10-09T21:55:54.764Z,2.62
2018-10-09T21:57:56.753Z,2.72
2018-10-09T21:59:58.762Z,2.42
2018-10-09T22:02:00.766Z,2.70
2018-10-09T22:04:02.748Z,2.58
2018-10-09T22:06:04.727Z,2.52
2018-10-09T22:08:06.756Z,2.90
2018-10-09T22:10:08.737Z,2.20
2018-10-09T22:12:10.704Z,3.00
2018-10-09T22:14:12.704Z,2.95
2018-10-09T22:16:14.818Z,2.52
2018-10-09T22:18:16.843Z,2.92
2018-10-09T22:20:18.824Z,3.00
2018-10-09T22:22:20.794Z,2.20
2018-10-09T22:24:22.851Z,3.10
2018-10-09T22:26:24.800Z,2.72
2018-10-09T22:28:26.781Z,2.72
2018-10-09T22:30:28.785Z,2.95
2018-10-09T22:32:30.804Z,2.52
2018-10-09T22:34:32.781Z,2.80
2018-10-09T22:36:34.752Z,2.98
2018-10-09T22:38:36.836Z,2.80
2018-10-09T22:40:38.768Z,2.83
2018-10-09T22:42:40.743Z,2.80
2018-10-09T22:44:42.796Z,2.47
2018-10-09T22:46:44.792Z,3.10
2018-10-09T22:48:46.760Z,3.12
2018-10-09T22:50:48.793Z,2.70
2018-10-09T22:52:50.759Z,2.55
2018-10-09T22:54:52.932Z,2.90
2018-10-09T22:56:54.900Z,2.87
2018-10-09T22:58:56.890Z,3.12
2018-10-09T23:00:58.902Z,2.72
2018-10-09T23:03:00.834Z,2.65
2018-10-09T23:05:02.802Z,2.90
2018-10-09T23:07:04.821Z,3.37
2018-10-09T23:09:06.849Z,2.72
2018-10-09T23:11:08.848Z,2.87
2018-10-09T23:13:10.864Z,3.22
2018-10-09T23:15:12.854Z,2.77
2018-10-09T23:17:14.819Z,3.27
2018-10-09T23:19:16.809Z,2.90
2018-10-09T23:21:18.828Z,3.02
2018-10-09T23:23:20.787Z,3.25
2018-10-09T23:25:22.762Z,3.40
2018-10-09T23:27:24.808Z,3.10
2018-10-09T23:29:26.775Z,3.25
2018-10-09T23:31:28.779Z,3.30
2018-10-09T23:33:30.806Z,2.90
2018-10-09T23:35:32.806Z,3.50
2018-10-09T23:37:34.810Z,3.40
2018-10-09T23:39:36.817Z,3.22
2018-10-09T23:41:38.795Z,2.92
2018-10-09T23:43:40.806Z,2.98
2018-10-09T23:45:43.265Z,3.37
2018-10-09T23:47:45.272Z,3.35
2018-10-09T23:49:47.254Z,3.05
2018-10-09T23:51:49.258Z,3.20
2018-10-09T23:53:51.334Z,3.08
2018-10-09T23:55:53.299Z,2.85
2018-10-09T23:57:55.264Z,2.92
2018-10-09T23:59:57.492Z,3.30
